Time;durP1;ratioP1;P1;durP2;ratioP2;P2;SDS_P1;SDS_P2;PMS_P1;PMS_P2;Temp;Humidity;BMP_temperature;BMP_pressure;BME280_temperature;BME280_humidity;BME280_pressure;Samples;Min_cycle;Max_cycle;Signal;HPM_P1;HPM_P2
2022/06/06 00:00:52;;;;;;;;;10.50;8.00;;;;;19.18;66.68;101498.63;5067696;28;45593;-71
2022/06/06 00:03:19;;;;;;;;;8.75;7.00;;;;;19.16;66.73;101488.06;5061070;28;46114;-71
2022/06/06 00:05:47;;;;;;;;;11.50;9.50;;;;;19.15;66.63;101496.22;5061822;28;45415;-71
2022/06/06 00:08:13;;;;;;;;;10.00;10.00;;;;;19.08;67.11;101495.03;5061763;28;45257;-71
2022/06/06 00:10:40;;;;;;;;;11.25;9.00;;;;;19.07;67.10;101498.69;5061550;28;45279;-71
2022/06/06 00:13:07;;;;;;;;;13.50;11.25;;;;;19.07;66.99;101496.84;5061435;28;45548;-72
2022/06/06 00:15:34;;;;;;;;;13.50;8.75;;;;;19.08;66.95;101495.88;5061532;28;45247;-71
2022/06/06 00:17:59;;;;;;;;;9.25;9.25;;;;;19.09;67.48;101494.03;5061369;28;45248;-72
2022/06/06 00:20:24;;;;;;;;;12.00;8.75;;;;;19.08;67.22;101485.19;5061401;28;45393;-71
2022/06/06 00:22:50;;;;;;;;;10.50;10.50;;;;;19.07;66.94;101496.00;5061511;28;45375;-71
2022/06/06 00:25:15;;;;;;;;;10.00;9.50;;;;;19.02;67.59;101490.19;5061293;28;45477;-72
2022/06/06 00:27:41;;;;;;;;;11.00;9.25;;;;;19.02;67.50;101484.84;5061573;28;45305;-71
2022/06/06 00:30:07;;;;;;;;;10.50;10.00;;;;;19.00;67.71;101482.31;5062237;28;45326;-72
2022/06/06 00:35:20;;;;;;;;;9.75;8.25;;;;;18.98;67.57;101480.75;5061366;28;45324;-71
2022/06/06 00:37:46;;;;;;;;;13.75;13.75;;;;;18.96;67.33;101478.22;5061093;28;45209;-71
2022/06/06 00:40:12;;;;;;;;;12.00;9.75;;;;;18.95;67.29;101477.34;5061003;28;45426;-71
2022/06/06 00:42:41;;;;;;;;;10.00;10.00;;;;;18.93;67.70;101473.97;5061132;28;45281;-70
2022/06/06 00:45:23;;;;;;;;;11.25;10.25;;;;;18.92;67.60;101466.09;5060989;28;45423;-71
2022/06/06 00:48:32;;;;;;;;;14.25;12.25;;;;;18.88;67.87;101465.50;5060922;28;45326;-70
2022/06/06 00:51:06;;;;;;;;;13.75;11.50;;;;;18.86;67.72;101467.44;5061073;28;45557;-71
2022/06/06 00:53:46;;;;;;;;;11.25;10.50;;;;;18.84;67.48;101456.03;5061031;28;45498;-71
2022/06/06 00:56:18;;;;;;;;;16.50;14.75;;;;;18.83;67.62;101459.69;5060876;28;45277;-71
2022/06/06 00:58:46;;;;;;;;;16.75;14.50;;;;;18.79;67.79;101460.06;5060876;28;45177;-71
2022/06/06 01:01:11;;;;;;;;;13.25;11.50;;;;;18.76;68.03;101457.66;5065501;28;45193;-69
2022/06/06 01:03:38;;;;;;;;;15.00;14.00;;;;;18.76;67.72;101447.81;5060711;28;45677;-71
2022/06/06 01:06:07;;;;;;;;;18.25;15.75;;;;;18.76;68.11;101454.97;5060816;28;45293;-70
2022/06/06 01:08:36;;;;;;;;;15.75;13.00;;;;;18.78;67.55;101453.03;5060856;28;45473;-71
2022/06/06 01:11:01;;;;;;;;;16.50;16.50;;;;;18.77;67.63;101464.69;5059240;28;45256;-70
2022/06/06 01:13:27;;;;;;;;;19.25;16.50;;;;;18.74;67.93;101456.94;5060528;28;45711;-70
2022/06/06 01:16:06;;;;;;;;;16.50;15.25;;;;;18.72;67.78;101451.69;5060742;28;45419;-71
2022/06/06 01:18:48;;;;;;;;;15.50;14.75;;;;;18.72;68.15;101449.03;5059178;28;45257;-70
2022/06/06 01:21:40;;;;;;;;;18.25;17.50;;;;;18.70;67.87;101440.31;5060876;28;45457;-71
2022/06/06 01:24:43;;;;;;;;;21.25;18.00;;;;;18.70;67.96;101440.31;5060548;28;45331;-71
2022/06/06 01:27:29;;;;;;;;;19.75;15.25;;;;;18.69;68.05;101452.81;5060383;28;45245;-71
2022/06/06 01:30:01;;;;;;;;;15.75;15.75;;;;;18.68;67.83;101443.09;5060720;28;45257;-71
2022/06/06 01:32:28;;;;;;;;;16.00;15.00;;;;;18.67;67.93;101443.25;5060355;28;45578;-70
2022/06/06 01:34:54;;;;;;;;;20.75;18.25;;;;;18.67;68.11;101446.75;5060632;28;45310;-70
2022/06/06 01:37:28;;;;;;;;;18.25;13.25;;;;;18.68;68.04;101443.09;5060626;28;45291;-70
2022/06/06 01:39:55;;;;;;;;;15.00;12.50;;;;;18.71;67.92;101438.47;5060425;28;45284;-70
2022/06/06 01:42:36;;;;;;;;;17.75;14.00;;;;;18.71;67.86;101442.00;5060687;28;45289;-70
2022/06/06 01:45:08;;;;;;;;;17.50;17.00;;;;;18.71;67.96;101443.81;5060262;28;46559;-70
2022/06/06 01:47:44;;;;;;;;;14.50;11.75;;;;;18.69;67.93;101446.63;5060350;28;45434;-70
2022/06/06 01:50:11;;;;;;;;;15.75;13.00;;;;;18.71;67.70;101449.16;5063665;28;45276;-70
2022/06/06 01:52:57;;;;;;;;;11.00;9.75;;;;;18.73;67.86;101448.06;5065159;28;45418;-70
2022/06/06 01:55:26;;;;;;;;;15.75;12.00;;;;;18.70;67.65;101442.97;5064829;28;45368;-71
2022/06/06 01:57:55;;;;;;;;;13.25;11.00;;;;;18.71;67.73;101447.34;5063594;28;45322;-70
2022/06/06 02:00:21;;;;;;;;;8.75;7.00;;;;;18.70;67.78;101437.63;5065252;28;45319;-71
2022/06/06 02:02:48;;;;;;;;;8.50;7.75;;;;;18.68;67.56;101443.09;5065511;28;45399;-71
2022/06/06 02:05:14;;;;;;;;;12.00;9.50;;;;;18.66;67.52;101441.53;5063603;28;46284;-71
2022/06/06 02:07:41;;;;;;;;;8.00;8.00;;;;;18.62;67.56;101438.22;5063607;28;45247;-70
2022/06/06 02:10:09;;;;;;;;;11.50;8.75;;;;;18.60;67.31;101442.84;5063557;28;45419;-70
2022/06/06 02:12:40;;;;;;;;;8.75;7.75;;;;;18.59;67.22;101438.50;5063497;28;45309;-70
2022/06/06 02:15:07;;;;;;;;;7.25;7.25;;;;;18.57;67.58;101434.28;5063548;28;45215;-70
2022/06/06 02:17:33;;;;;;;;;11.50;10.00;;;;;18.57;67.06;101428.94;5063136;28;45169;-69
2022/06/06 02:20:01;;;;;;;;;9.00;7.00;;;;;18.52;66.99;101431.97;5063644;28;45385;-70
2022/06/06 02:22:28;;;;;;;;;6.75;6.00;;;;;18.49;66.98;101434.03;5063266;28;45526;-70
2022/06/06 02:24:54;;;;;;;;;9.00;7.50;;;;;18.44;67.28;101429.06;5063300;28;45350;-70
2022/06/06 02:27:19;;;;;;;;;8.00;8.00;;;;;18.42;67.46;101431.88;5063190;28;45242;-69
2022/06/06 02:29:45;;;;;;;;;7.00;7.00;;;;;18.39;67.14;101426.75;5063449;28;45197;-70
2022/06/06 02:32:11;;;;;;;;;7.25;7.25;;;;;18.35;66.90;101430.66;5063162;28;45248;-70
2022/06/06 02:34:37;;;;;;;;;7.25;7.25;;;;;18.30;66.97;101440.00;5061930;28;48175;-69
2022/06/06 02:37:04;;;;;;;;;8.50;6.00;;;;;18.25;67.06;101436.88;5063054;28;45394;-71
2022/06/06 02:39:29;;;;;;;;;8.75;8.00;;;;;18.20;67.10;101434.56;5063261;28;45319;-70
2022/06/06 02:41:55;;;;;;;;;8.25;6.75;;;;;18.21;67.15;101432.75;5062932;28;45276;-69
2022/06/06 02:44:21;;;;;;;;;6.50;6.50;;;;;18.17;67.15;101437.50;5063062;28;45480;-70
2022/06/06 02:46:47;;;;;;;;;10.75;8.75;;;;;18.14;67.00;101430.56;5062892;28;45407;-71
2022/06/06 02:49:13;;;;;;;;;8.50;6.25;;;;;18.15;66.77;101444.75;5062884;28;45243;-71
2022/06/06 02:51:38;;;;;;;;;9.00;9.00;;;;;18.12;66.58;101440.50;5063103;28;45307;-69
2022/06/06 02:54:04;;;;;;;;;5.00;5.00;;;;;18.09;66.83;101446.09;5062897;28;45345;-70
2022/06/06 02:56:29;;;;;;;;;7.00;7.00;;;;;18.06;66.81;101445.47;5062744;28;45323;-70
2022/06/06 02:59:00;;;;;;;;;9.25;7.25;;;;;18.03;66.50;101435.06;5062946;28;45240;-69
2022/06/06 03:01:26;;;;;;;;;8.50;7.75;;;;;18.03;66.73;101429.75;5067064;28;45453;-70
2022/06/06 03:03:52;;;;;;;;;11.50;10.00;;;;;18.02;66.68;101431.56;5062413;28;46029;-69
2022/06/06 03:06:45;;;;;;;;;8.50;7.75;;;;;18.00;66.18;101421.97;5062554;28;45268;-70
2022/06/06 03:09:51;;;;;;;;;12.00;9.00;;;;;17.94;66.06;101423.31;5062777;28;45276;-70
2022/06/06 03:12:44;;;;;;;;;8.00;8.00;;;;;17.93;65.80;101428.75;5045565;28;45595;-70
2022/06/06 03:15:27;;;;;;;;;11.75;9.50;;;;;17.91;65.97;101438.69;5063114;28;46141;-68
2022/06/06 03:21:10;;;;;;;;;7.00;7.00;;;;;17.88;65.79;101434.47;5062603;28;45342;-69
2022/06/06 03:23:54;;;;;;;;;10.00;9.00;;;;;17.89;66.12;101433.50;5062313;28;45456;-68
2022/06/06 03:26:37;;;;;;;;;14.00;11.00;;;;;17.89;65.92;101441.50;5062249;28;46286;-70
2022/06/06 03:29:05;;;;;;;;;11.50;9.75;;;;;17.90;65.68;101434.34;5062100;28;45528;-71
2022/06/06 03:31:39;;;;;;;;;9.50;9.00;;;;;17.90;65.64;101440.53;5062433;28;45496;-70
2022/06/06 03:34:28;;;;;;;;;11.25;8.00;;;;;17.89;65.43;101441.50;5062232;28;45645;-70
2022/06/06 03:37:15;;;;;;;;;13.50;9.75;;;;;17.86;65.61;101441.75;5062280;28;45323;-71
2022/06/06 03:39:55;;;;;;;;;8.00;8.00;;;;;17.83;65.49;101445.47;5062105;28;45161;-70
2022/06/06 03:42:39;;;;;;;;;13.00;10.00;;;;;17.81;65.31;101441.25;5062258;28;45480;-71
2022/06/06 03:45:25;;;;;;;;;8.00;8.00;;;;;17.82;65.30;101457.09;5062126;28;45485;-70
2022/06/06 03:48:00;;;;;;;;;8.25;7.00;;;;;17.79;65.12;101449.38;5061760;28;45899;-71
2022/06/06 03:50:59;;;;;;;;;5.75;5.50;;;;;17.77;65.06;101445.09;5062005;28;45428;-69
2022/06/06 03:53:37;;;;;;;;;5.00;4.00;;;;;17.73;64.95;101443.66;5062250;28;45214;-70
2022/06/06 03:56:22;;;;;;;;;4.00;4.00;;;;;17.71;65.13;101445.59;5061877;28;45480;-70
2022/06/06 03:58:48;;;;;;;;;6.00;4.00;;;;;17.70;65.20;101446.53;5061658;28;45645;-70
2022/06/06 04:01:16;;;;;;;;;6.25;3.50;;;;;17.70;65.22;101441.22;5067305;28;45453;-70
2022/06/06 04:03:44;;;;;;;;;4.25;3.00;;;;;17.71;64.83;101448.28;5061852;28;45453;-70
2022/06/06 04:06:10;;;;;;;;;3.50;3.25;;;;;17.70;65.11;101455.41;5061773;28;45191;-70
2022/06/06 04:08:35;;;;;;;;;5.50;2.00;;;;;17.71;65.08;101458.94;5061765;28;45254;-71
2022/06/06 04:11:01;;;;;;;;;4.00;4.00;;;;;17.69;65.05;101464.31;5060867;28;45421;-71
2022/06/06 04:13:47;;;;;;;;;3.00;2.75;;;;;17.70;64.63;101455.41;5061973;28;45157;-71
2022/06/06 04:16:37;;;;;;;;;3.00;3.00;;;;;17.72;64.87;101461.47;5062024;28;45275;-71
2022/06/06 04:19:27;;;;;;;;;2.00;2.00;;;;;17.71;64.63;101461.59;5061129;28;46102;-70
2022/06/06 04:22:13;;;;;;;;;4.50;3.75;;;;;17.71;64.77;101462.44;5061485;28;45359;-70
2022/06/06 04:25:16;;;;;;;;;4.50;2.50;;;;;17.74;64.40;101469.34;5061759;28;45399;-70
2022/06/06 04:27:59;;;;;;;;;1.75;1.75;;;;;17.74;64.50;101466.69;5050807;28;45544;-70
2022/06/06 04:30:35;;;;;;;;;2.00;2.00;;;;;17.77;64.36;101469.97;5061221;28;45194;-69
2022/06/06 04:33:11;;;;;;;;;24.25;17.00;;;;;17.77;64.32;101474.41;5061124;28;45217;-70
2022/06/06 04:35:54;;;;;;;;;18.00;16.00;;;;;17.75;64.06;101476.38;5060108;28;45232;-70
2022/06/06 04:38:46;;;;;;;;;6.00;6.00;;;;;17.76;64.20;101472.72;5061598;28;45294;-72
2022/06/06 04:41:17;;;;;;;;;5.00;5.00;;;;;17.77;63.93;101458.44;5061725;28;45477;-70
2022/06/06 04:44:13;;;;;;;;;12.00;11.75;;;;;17.80;63.92;101463.53;5061117;28;45153;-70
2022/06/06 04:47:07;;;;;;;;;2.75;2.75;;;;;17.84;63.61;101459.66;5060775;28;45399;-71
2022/06/06 04:49:33;;;;;;;;;2.00;2.00;;;;;17.87;63.62;101467.44;5061191;28;45257;-71
2022/06/06 04:52:02;;;;;;;;;3.00;2.00;;;;;17.88;63.76;101461.13;5061088;28;45362;-70
2022/06/06 04:54:30;;;;;;;;;2.00;2.00;;;;;17.89;63.56;101454.81;5060927;28;45492;-71
2022/06/06 04:56:59;;;;;;;;;5.50;4.00;;;;;17.90;63.50;101459.19;5061106;28;45296;-70
2022/06/06 04:59:26;;;;;;;;;3.50;3.50;;;;;17.92;63.47;101454.56;5061066;28;45353;-71
2022/06/06 05:01:52;;;;;;;;;3.00;3.00;;;;;17.92;63.83;101464.38;5066343;28;45404;-70
2022/06/06 05:04:18;;;;;;;;;4.50;3.00;;;;;17.91;63.50;101462.69;5060591;28;45327;-71
2022/06/06 05:07:02;;;;;;;;;3.50;3.50;;;;;17.90;63.23;101471.66;5061161;28;45299;-71
2022/06/06 05:09:33;;;;;;;;;3.75;3.75;;;;;17.88;63.39;101466.44;5061024;28;45367;-70
2022/06/06 05:12:14;;;;;;;;;3.50;3.50;;;;;17.87;63.31;101472.75;5060596;28;46038;-72
2022/06/06 05:15:07;;;;;;;;;4.00;4.00;;;;;17.84;63.49;101473.81;5049094;28;45406;-70
2022/06/06 05:17:45;;;;;;;;;3.00;3.00;;;;;17.85;63.38;101470.22;5060645;28;45442;-70
2022/06/06 05:20:40;;;;;;;;;3.75;3.50;;;;;17.84;63.10;101470.31;5060862;28;45161;-70
2022/06/06 05:23:25;;;;;;;;;4.50;4.50;;;;;17.83;63.47;101468.63;5060753;28;45239;-72
2022/06/06 05:26:18;;;;;;;;;2.75;2.00;;;;;17.79;63.55;101476.03;5064252;28;45199;-71
2022/06/06 05:29:09;;;;;;;;;2.75;1.00;;;;;17.78;63.24;101468.16;5064317;28;45287;-72
2022/06/06 05:32:08;;;;;;;;;2.00;2.00;;;;;17.79;63.51;101476.03;5064267;28;45500;-70
2022/06/06 05:34:41;;;;;;;;;3.00;2.00;;;;;17.89;63.13;101470.81;5064155;28;45278;-71
2022/06/06 05:37:36;;;;;;;;;1.00;1.00;;;;;18.00;63.46;101483.28;5063959;28;45442;-70
2022/06/06 05:40:24;;;;;;;;;1.50;1.00;;;;;18.11;63.15;101483.31;5055332;28;45401;-70
2022/06/06 05:43:11;;;;;;;;;1.75;1.00;;;;;18.13;63.07;101470.69;5064236;28;45215;-72
2022/06/06 05:45:48;;;;;;;;;0.50;0.50;;;;;18.19;62.85;101480.88;5064082;28;45492;-71
2022/06/06 05:48:36;;;;;;;;;1.25;1.00;;;;;18.24;62.82;101473.34;5063634;28;45406;-71
2022/06/06 05:51:39;;;;;;;;;1.00;1.00;;;;;18.28;62.84;101469.47;5064024;28;45357;-73
2022/06/06 05:54:09;;;;;;;;;0.25;0.25;;;;;18.28;62.66;101471.28;5064027;28;45310;-71
2022/06/06 05:56:45;;;;;;;;;1.00;1.00;;;;;18.29;62.74;101473.00;5063595;28;45492;-71
2022/06/06 05:59:42;;;;;;;;;1.00;1.00;;;;;18.30;62.39;101472.00;5063844;28;45239;-70
2022/06/06 06:02:28;;;;;;;;;0.00;0.00;;;;;18.32;62.27;101481.56;5069280;28;45642;-71
2022/06/06 06:04:59;;;;;;;;;0.75;0.00;;;;;18.33;62.46;101479.78;5064063;28;45505;-72
2022/06/06 06:07:30;;;;;;;;;0.25;0.25;;;;;18.34;62.22;101484.16;5063630;28;46399;-73
2022/06/06 06:10:05;;;;;;;;;1.00;1.00;;;;;18.34;62.06;101492.16;5063439;28;45319;-70
2022/06/06 06:12:39;;;;;;;;;2.00;0.75;;;;;18.39;62.30;101490.78;5063381;28;45301;-71
2022/06/06 06:15:25;;;;;;;;;1.50;1.00;;;;;18.44;62.22;101487.75;5063736;28;45342;-72
2022/06/06 06:17:53;;;;;;;;;2.00;1.00;;;;;18.49;61.88;101492.75;5063363;28;46144;-73
2022/06/06 06:20:22;;;;;;;;;1.00;0.75;;;;;18.52;61.90;101497.81;5063290;28;45330;-72
2022/06/06 06:22:48;;;;;;;;;1.00;1.00;;;;;18.52;61.69;101505.81;5063610;28;45478;-71
2022/06/06 06:25:15;;;;;;;;;1.00;1.00;;;;;18.52;61.88;101509.34;5063298;28;45306;-70
2022/06/06 06:27:43;;;;;;;;;0.00;0.00;;;;;18.55;61.93;101505.56;5063299;28;45433;-70
2022/06/06 06:30:09;;;;;;;;;3.00;1.00;;;;;18.59;61.94;101505.22;5063209;28;45695;-72
2022/06/06 06:32:50;;;;;;;;;2.25;0.00;;;;;18.59;61.72;101504.34;5063309;28;45156;-71
2022/06/06 06:35:39;;;;;;;;;1.00;1.00;;;;;18.61;61.36;101513.94;5062794;28;45330;-71
2022/06/06 06:38:11;;;;;;;;;2.50;1.00;;;;;18.67;61.38;101518.81;5063115;28;45366;-71
2022/06/06 06:40:48;;;;;;;;;1.75;1.00;;;;;18.70;61.47;101517.69;5061686;28;45422;-70
2022/06/06 06:43:25;;;;;;;;;3.00;1.00;;;;;18.72;61.48;101518.41;5063085;28;45449;-72
2022/06/06 06:45:57;;;;;;;;;1.00;1.00;;;;;18.79;61.66;101524.97;5063238;28;45577;-71
2022/06/06 06:48:31;;;;;;;;;3.25;1.50;;;;;18.84;61.40;101522.78;5062615;28;46379;-70
2022/06/06 06:51:09;;;;;;;;;3.25;1.00;;;;;18.88;61.19;101518.00;5062928;28;45337;-71
2022/06/06 06:53:40;;;;;;;;;2.00;2.00;;;;;18.88;61.09;101524.22;5063247;28;45527;-71
2022/06/06 06:56:40;;;;;;;;;2.00;2.00;;;;;18.92;61.49;101524.81;5062988;28;45342;-72
2022/06/06 06:59:05;;;;;;;;;2.50;1.00;;;;;18.94;61.29;101526.38;5062545;28;46437;-70
2022/06/06 07:01:34;;;;;;;;;2.00;1.00;;;;;18.95;60.89;101519.22;5068458;28;45264;-72
2022/06/06 07:10:22;;;;;;;;;3.25;3.00;;;;;19.00;60.59;101522.38;5062590;28;45350;-71
2022/06/06 07:13:05;;;;;;;;;1.50;1.50;;;;;19.03;61.07;101522.09;5062454;28;45314;-71
2022/06/06 07:15:47;;;;;;;;;2.00;2.00;;;;;19.07;60.72;101523.56;5062604;28;45496;-71
2022/06/06 07:18:16;;;;;;;;;1.75;1.00;;;;;19.07;60.48;101520.88;5062707;28;45234;-72
2022/06/06 07:20:45;;;;;;;;;1.50;1.00;;;;;19.04;60.42;101522.94;5062204;28;45893;-72
2022/06/06 07:23:14;;;;;;;;;3.00;1.00;;;;;19.02;60.75;101522.22;5062544;28;45182;-71
2022/06/06 07:25:44;;;;;;;;;2.00;2.00;;;;;19.05;60.96;101524.66;5062326;28;45378;-70
2022/06/06 07:28:13;;;;;;;;;1.50;1.00;;;;;19.10;60.62;101522.44;5062977;28;45233;-70
2022/06/06 07:31:01;;;;;;;;;2.00;1.00;;;;;19.12;60.30;101521.38;5062354;28;46260;-70
2022/06/06 07:33:29;;;;;;;;;2.00;1.00;;;;;19.17;60.24;101515.63;5045542;28;45444;-72
2022/06/06 07:36:23;;;;;;;;;76.33;61.33;;;;;19.23;60.71;101512.44;5062480;28;45287;-72
2022/06/06 07:38:58;;;;;;;;;1.00;1.00;;;;;19.25;60.82;101516.69;5062310;28;45334;-70
2022/06/06 07:41:49;;;;;;;;;1.00;1.00;;;;;19.28;60.20;101515.59;5062009;28;45380;-72
2022/06/06 07:44:20;;;;;;;;;3.25;2.75;;;;;19.30;59.98;101518.97;5062243;28;45442;-71
2022/06/06 07:46:58;;;;;;;;;2.00;0.00;;;;;19.25;59.92;101519.34;5061189;28;45532;-73
2022/06/06 07:49:46;;;;;;;;;3.00;1.25;;;;;19.28;60.08;101512.94;5062153;28;45425;-73
2022/06/06 07:52:11;;;;;;;;;2.50;1.50;;;;;19.28;60.09;101512.09;5061928;28;45378;-73
2022/06/06 07:54:57;;;;;;;;;1.00;1.00;;;;;19.32;59.73;101517.03;5061824;28;45414;-73
2022/06/06 07:57:49;;;;;;;;;1.25;1.00;;;;;19.35;59.73;101511.41;5062250;28;45352;-72
2022/06/06 08:00:28;;;;;;;;;2.00;1.00;;;;;19.45;59.79;101511.50;5064005;28;45307;-72
2022/06/06 08:03:46;;;;;;;;;1.75;1.75;;;;;19.49;59.26;101508.44;5063522;28;45386;-71
2022/06/06 08:06:33;;;;;;;;;0.50;0.50;;;;;19.52;59.21;101507.34;5060383;28;45168;-74
2022/06/06 08:09:17;;;;;;;;;2.25;1.00;;;;;19.51;59.02;101509.16;5061753;28;45239;-72
2022/06/06 08:12:09;;;;;;;;;5.00;2.00;;;;;19.52;59.13;101510.00;5061566;28;45371;-71
2022/06/06 08:14:59;;;;;;;;;1.75;1.75;;;;;19.55;59.27;101508.91;5049020;28;45418;-72
2022/06/06 08:17:33;;;;;;;;;1.25;1.25;;;;;19.53;59.14;101503.69;5061287;28;45358;-72
2022/06/06 08:20:27;;;;;;;;;1.75;1.00;;;;;19.48;59.02;101505.88;5061673;28;45180;-72
2022/06/06 08:22:57;;;;;;;;;1.00;1.00;;;;;19.50;58.60;101501.25;5061621;28;45283;-72
2022/06/06 08:25:23;;;;;;;;;0.50;0.50;;;;;19.56;59.06;101497.22;5061274;28;46138;-71
2022/06/06 08:27:51;;;;;;;;;1.00;1.00;;;;;19.58;59.05;101496.13;5061567;28;45380;-72
2022/06/06 08:30:19;;;;;;;;;3.25;2.00;;;;;19.60;59.03;101498.69;5061479;28;45298;-72
2022/06/06 08:32:45;;;;;;;;;2.00;1.00;;;;;19.61;58.42;101492.38;5061301;28;45433;-73
2022/06/06 08:35:10;;;;;;;;;0.25;0.25;;;;;19.62;58.49;101499.41;5061237;28;46230;-74
2022/06/06 08:38:01;;;;;;;;;1.75;0.25;;;;;19.60;58.54;101486.19;5061385;28;45314;-72
2022/06/06 08:40:58;;;;;;;;;1.00;1.00;;;;;19.70;58.42;101487.09;5061433;28;45193;-72
2022/06/06 08:43:42;;;;;;;;;1.00;1.00;;;;;19.81;58.12;101483.47;5061198;28;45324;-73
2022/06/06 08:46:39;;;;;;;;;2.75;0.50;;;;;19.90;58.34;101484.50;5061079;28;46236;-71
2022/06/06 08:52:51;;;;;;;;;1.00;1.00;;;;;20.01;57.53;101484.44;5062054;28;45466;-73
2022/06/06 08:55:25;;;;;;;;;1.00;1.00;;;;;20.11;57.52;101487.16;5062622;28;45449;-74
2022/06/06 08:58:10;;;;;;;;;0.75;0.75;;;;;20.16;57.68;101477.75;5061131;28;45428;-73
2022/06/06 09:00:59;;;;;;;;;0.50;0.50;;;;;20.16;57.21;101491.13;5065946;28;45469;-72
2022/06/06 09:03:38;;;;;;;;;1.75;1.00;;;;;20.08;57.40;101488.28;5049334;28;45245;-74
2022/06/06 09:06:16;;;;;;;;;0.50;0.00;;;;;20.01;57.29;101489.78;5060775;28;45506;-75
2022/06/06 09:09:06;;;;;;;;;0.00;0.00;;;;;19.92;56.97;101491.44;5060791;28;45399;-74
2022/06/06 09:12:22;;;;;;;;;0.75;0.50;;;;;19.94;56.68;101492.13;5060961;28;45284;-72
2022/06/06 09:15:16;;;;;;;;;1.00;0.00;;;;;20.03;56.37;101495.84;5028043;28;45299;-73
2022/06/06 09:18:07;;;;;;;;;1.00;1.00;;;;;19.96;56.71;101486.66;5038312;28;45520;-75
2022/06/06 09:20:47;;;;;;;;;0.00;0.00;;;;;19.91;56.38;101494.25;5058430;28;46084;-72
2022/06/06 09:23:44;;;;;;;;;0.50;0.50;;;;;19.96;56.07;101487.50;5060754;28;45228;-72
2022/06/06 09:26:28;;;;;;;;;0.00;0.00;;;;;20.10;56.18;101488.97;5059378;28;45375;-73
2022/06/06 09:29:25;;;;;;;;;6.75;6.75;;;;;20.09;56.11;101487.28;5061008;28;45307;-73
2022/06/06 09:32:38;;;;;;;;;2.00;1.00;;;;;20.16;55.77;101485.75;5060304;28;46148;-73
2022/06/06 09:35:25;;;;;;;;;0.00;0.00;;;;;20.20;55.53;101480.97;5058451;28;45371;-76
2022/06/06 09:38:10;;;;;;;;;10.75;8.00;;;;;20.32;55.62;101475.41;5060668;28;45300;-73
2022/06/06 09:40:42;;;;;;;;;1.00;1.00;;;;;20.47;55.61;101477.75;5060499;28;45251;-72
2022/06/06 09:43:11;;;;;;;;;2.25;1.00;;;;;20.55;55.39;101475.22;5060231;28;45432;-74
2022/06/06 09:45:55;;;;;;;;;1.00;1.00;;;;;20.69;55.07;101474.78;5060443;28;45342;-74
2022/06/06 09:48:29;;;;;;;;;9.00;7.75;;;;;20.82;54.98;101479.91;5059994;28;45325;-74
2022/06/06 09:51:10;;;;;;;;;0.00;0.00;;;;;20.86;54.62;101466.09;5060517;28;45405;-72
2022/06/06 10:00:47;;;;;;;;;4.75;4.75;;;;;21.06;54.12;101474.97;5033779;28;45413;-72
2022/06/06 10:03:16;;;;;;;;;2.50;0.00;;;;;21.19;53.88;101472.03;5046887;28;45278;-75
2022/06/06 10:06:04;;;;;;;;;0.00;0.00;;;;;21.13;53.62;101472.59;5060174;28;45249;-73
2022/06/06 10:08:36;;;;;;;;;0.00;0.00;;;;;20.98;53.48;101477.53;5056673;28;45229;-73
2022/06/06 10:11:09;;;;;;;;;0.00;0.00;;;;;20.86;53.09;101471.47;5062996;28;45304;-74
2022/06/06 10:13:46;;;;;;;;;0.25;0.00;;;;;20.78;53.00;101470.47;5063580;28;45395;-72
2022/06/06 10:16:43;;;;;;;;;0.00;0.00;;;;;20.78;52.84;101468.63;5063711;28;46127;-72
2022/06/06 10:19:30;;;;;;;;;1.00;0.00;;;;;20.88;53.05;101472.16;5061108;28;45318;-74
2022/06/06 10:22:21;;;;;;;;;0.50;0.50;;;;;21.00;52.82;101475.53;5063602;28;45374;-73
2022/06/06 10:25:22;;;;;;;;;0.00;0.00;;;;;21.12;52.46;101474.41;5063479;28;45304;-73
2022/06/06 10:28:15;;;;;;;;;1.00;0.00;;;;;21.29;52.49;101474.72;5063556;28;45226;-73
2022/06/06 10:30:52;;;;;;;;;0.00;0.00;;;;;21.44;52.28;101474.16;5063303;28;45391;-73
2022/06/06 10:33:34;;;;;;;;;0.00;0.00;;;;;21.61;52.22;101471.72;5063060;28;45330;-72
2022/06/06 10:36:33;;;;;;;;;0.00;0.00;;;;;21.74;51.88;101477.63;5063649;28;45294;-72
2022/06/06 10:39:11;;;;;;;;;0.00;0.00;;;;;21.90;51.75;101468.97;5063308;28;45481;-73
2022/06/06 10:41:56;;;;;;;;;1.00;0.00;;;;;22.01;51.66;101476.81;5062960;28;45350;-73
2022/06/06 10:44:24;;;;;;;;;0.50;0.00;;;;;21.99;51.52;101476.97;5063178;28;45334;-72
2022/06/06 10:47:06;;;;;;;;;0.00;0.00;;;;;22.09;51.04;101478.78;5062833;28;45460;-71
2022/06/06 10:49:47;;;;;;;;;0.50;0.50;;;;;22.19;51.27;101468.84;5062743;28;45367;-73
2022/06/06 10:52:29;;;;;;;;;0.00;0.00;;;;;22.26;51.00;101475.31;5063069;28;45222;-73
2022/06/06 10:55:16;;;;;;;;;0.50;0.50;;;;;22.29;50.99;101467.81;5062909;28;45223;-71
2022/06/06 10:58:26;;;;;;;;;1.50;1.50;;;;;22.39;50.63;101467.75;5062715;28;45192;-72
2022/06/06 11:01:25;;;;;;;;;7.00;6.00;;;;;22.46;50.82;101459.97;5067286;28;45549;-70
2022/06/06 11:04:15;;;;;;;;;0.50;0.50;;;;;22.51;50.24;101457.66;5062449;28;45286;-71
2022/06/06 11:07:10;;;;;;;;;0.00;0.00;;;;;22.53;50.13;101455.69;5063051;28;45272;-71
2022/06/06 11:10:17;;;;;;;;;0.25;0.25;;;;;22.42;50.21;101456.72;5061459;28;45395;-70
2022/06/06 11:12:57;;;;;;;;;0.00;0.00;;;;;22.26;50.02;101459.22;5062430;28;46112;-70
2022/06/06 11:15:41;;;;;;;;;0.75;0.00;;;;;22.09;49.87;101460.84;5062619;28;45227;-71
2022/06/06 11:18:25;;;;;;;;;0.00;0.00;;;;;21.92;49.38;101454.41;5062600;28;45299;-71
2022/06/06 11:21:24;;;;;;;;;2.25;0.75;;;;;21.79;49.54;101453.88;5062481;28;45450;-71
2022/06/06 11:24:01;;;;;;;;;10.50;8.50;;;;;21.68;49.46;101462.09;5062085;28;46330;-70
2022/06/06 11:26:33;;;;;;;;;2.00;1.00;;;;;21.72;49.35;101455.44;5062249;28;45448;-71
2022/06/06 11:29:31;;;;;;;;;3.75;2.50;;;;;21.67;49.54;101461.25;5062296;28;45442;-71
2022/06/06 11:32:27;;;;;;;;;1.00;1.00;;;;;21.64;49.53;101463.38;5051629;28;45429;-71
2022/06/06 11:35:08;;;;;;;;;4.00;2.25;;;;;21.62;49.35;101458.16;5062081;28;46248;-72
2022/06/06 11:38:04;;;;;;;;;0.00;0.00;;;;;21.66;49.44;101456.03;5062311;28;45216;-69
2022/06/06 11:40:51;;;;;;;;;0.00;0.00;;;;;21.69;49.52;101455.75;5060911;28;45273;-72
2022/06/06 11:43:25;;;;;;;;;0.00;0.00;;;;;21.71;49.21;101464.47;5062797;28;45517;-70
2022/06/06 11:46:00;;;;;;;;;1.00;0.75;;;;;21.77;49.54;101455.84;5062137;28;45937;-71
2022/06/06 11:48:38;;;;;;;;;1.75;1.50;;;;;21.83;49.28;101449.91;5061708;28;45347;-72
2022/06/06 11:51:09;;;;;;;;;0.00;0.00;;;;;21.83;49.19;101457.97;5062300;28;45345;-71
2022/06/06 11:53:53;;;;;;;;;0.00;0.00;;;;;21.85;49.16;101455.13;5062191;28;45563;-70
2022/06/06 11:56:41;;;;;;;;;0.00;0.00;;;;;22.05;48.86;101464.81;5061681;28;45587;-71
2022/06/06 11:59:28;;;;;;;;;0.75;0.00;;;;;22.27;49.03;101452.84;5061917;28;45469;-72
2022/06/06 12:02:48;;;;;;;;;1.50;0.50;;;;;22.60;48.88;101454.09;5067502;28;45357;-70
2022/06/06 12:05:34;;;;;;;;;0.75;0.75;;;;;22.65;48.51;101458.97;5019686;28;45313;-70
2022/06/06 12:08:25;;;;;;;;;0.00;0.00;;;;;22.80;48.45;101452.09;5058768;28;46070;-70
2022/06/06 12:11:27;;;;;;;;;0.00;0.00;;;;;22.73;47.82;101449.16;5061494;28;45279;-70
2022/06/06 12:14:14;;;;;;;;;0.00;0.00;;;;;22.61;47.78;101439.66;5061693;28;45361;-70
2022/06/06 12:17:04;;;;;;;;;0.00;0.00;;;;;22.56;47.79;101437.41;5061431;28;45189;-70
2022/06/06 12:19:59;;;;;;;;;0.50;0.50;;;;;22.55;47.93;101433.03;5060072;28;45404;-72
2022/06/06 12:22:54;;;;;;;;;0.00;0.00;;;;;22.67;47.66;101436.38;5061121;28;45455;-70
2022/06/06 12:25:22;;;;;;;;;0.75;0.00;;;;;22.88;47.94;101440.59;5061635;28;45369;-73
2022/06/06 12:28:02;;;;;;;;;0.00;0.00;;;;;23.08;47.69;101439.47;5061347;28;45314;-70
2022/06/06 12:30:46;;;;;;;;;0.25;0.25;;;;;23.15;47.10;101427.09;5061262;28;46712;-72
2022/06/06 12:33:34;;;;;;;;;0.00;0.00;;;;;23.17;47.36;101421.56;5060632;28;45321;-71
2022/06/06 12:36:14;;;;;;;;;1.50;0.00;;;;;23.14;46.96;101425.38;5061615;28;45475;-72
2022/06/06 12:39:06;;;;;;;;;2.00;1.00;;;;;23.11;47.20;101425.69;5061352;28;45259;-71